sensor_id;sensor_type;location;lat;lon;timestamp;pressure;altitude;pressure_sealevel;temperature;humidity
77351;BME280;66420;50.246;14.320;2023-11-19T00:00:29;99896.78;;;2.86;100.00
77351;BME280;66420;50.246;14.320;2023-11-19T00:03:14;99888.84;;;2.80;100.00
77351;BME280;66420;50.246;14.320;2023-11-19T00:05:59;99878.84;;;2.80;100.00
77351;BME280;66420;50.246;14.320;2023-11-19T00:08:44;99873.53;;;2.85;100.00
77351;BME280;66420;50.246;14.320;2023-11-19T00:11:29;99859.69;;;2.82;100.00
77351;BME280;66420;50.246;14.320;2023-11-19T00:14:14;99854.72;;;2.74;100.00
77351;BME280;66420;50.246;14.320;2023-11-19T00:16:59;99852.03;;;2.74;100.00
77351;BME280;66420;50.246;14.320;2023-11-19T00:19:44;99843.34;;;2.72;100.00
77351;BME280;66420;50.246;14.320;2023-11-19T00:22:29;99834.63;;;2.64;100.00
77351;BME280;66420;50.246;14.320;2023-11-19T00:25:14;99828.63;;;2.62;100.00
77351;BME280;66420;50.246;14.320;2023-11-19T00:28:00;99828.16;;;2.65;100.00
77351;BME280;66420;50.246;14.320;2023-11-19T00:30:45;99817.28;;;2.60;100.00
77351;BME280;66420;50.246;14.320;2023-11-19T00:33:30;99812.94;;;2.59;100.00
77351;BME280;66420;50.246;14.320;2023-11-19T00:36:15;99816.19;;;2.61;100.00
77351;BME280;66420;50.246;14.320;2023-11-19T00:39:00;99807.53;;;2.59;100.00
77351;BME280;66420;50.246;14.320;2023-11-19T00:41:45;99807.69;;;2.53;100.00
77351;BME280;66420;50.246;14.320;2023-11-19T00:44:30;99798.34;;;2.60;100.00
77351;BME280;66420;50.246;14.320;2023-11-19T00:47:15;99786.41;;;2.56;100.00
77351;BME280;66420;50.246;14.320;2023-11-19T00:50:01;99788.63;;;2.59;100.00
77351;BME280;66420;50.246;14.320;2023-11-19T00:52:45;99798.34;;;2.60;100.00
77351;BME280;66420;50.246;14.320;2023-11-19T00:55:31;99783.28;;;2.64;100.00
77351;BME280;66420;50.246;14.320;2023-11-19T00:58:16;99776.75;;;2.60;100.00
77351;BME280;66420;50.246;14.320;2023-11-19T01:01:02;99775.63;;;2.56;100.00
77351;BME280;66420;50.246;14.320;2023-11-19T01:03:47;99756.94;;;2.55;100.00
77351;BME280;66420;50.246;14.320;2023-11-19T01:06:32;99754.78;;;2.57;100.00
77351;BME280;66420;50.246;14.320;2023-11-19T01:09:17;99764.97;;;2.50;100.00
77351;BME280;66420;50.246;14.320;2023-11-19T01:12:02;99758.75;;;2.49;100.00
77351;BME280;66420;50.246;14.320;2023-11-19T01:14:47;99756.72;;;2.56;100.00
77351;BME280;66420;50.246;14.320;2023-11-19T01:17:32;99750.16;;;2.52;100.00
77351;BME280;66420;50.246;14.320;2023-11-19T01:20:16;99744.75;;;2.52;100.00
77351;BME280;66420;50.246;14.320;2023-11-19T01:23:01;99738.28;;;2.53;100.00
77351;BME280;66420;50.246;14.320;2023-11-19T01:25:47;99729.28;;;2.48;100.00
77351;BME280;66420;50.246;14.320;2023-11-19T01:28:33;99729.03;;;2.49;100.00
77351;BME280;66420;50.246;14.320;2023-11-19T01:31:18;99736.84;;;2.46;100.00
77351;BME280;66420;50.246;14.320;2023-11-19T01:34:04;99705.38;;;2.56;100.00
77351;BME280;66420;50.246;14.320;2023-11-19T01:36:49;99706.50;;;2.60;100.00
77351;BME280;66420;50.246;14.320;2023-11-19T01:39:33;99709.97;;;2.56;100.00
77351;BME280;66420;50.246;14.320;2023-11-19T01:42:18;99693.81;;;2.61;100.00
77351;BME280;66420;50.246;14.320;2023-11-19T01:45:03;99678.34;;;2.56;100.00
77351;BME280;66420;50.246;14.320;2023-11-19T01:47:51;99669.16;;;2.57;100.00
77351;BME280;66420;50.246;14.320;2023-11-19T01:50:36;99672.44;;;2.59;100.00
77351;BME280;66420;50.246;14.320;2023-11-19T01:53:21;99664.84;;;2.56;100.00
77351;BME280;66420;50.246;14.320;2023-11-19T01:56:07;99666.50;;;2.62;100.00
77351;BME280;66420;50.246;14.320;2023-11-19T01:58:56;99682.44;;;2.59;100.00
77351;BME280;66420;50.246;14.320;2023-11-19T02:01:42;99670.19;;;2.51;100.00
77351;BME280;66420;50.246;14.320;2023-11-19T02:04:27;99656.22;;;2.59;100.00
77351;BME280;66420;50.246;14.320;2023-11-19T02:07:12;99643.66;;;2.48;100.00
77351;BME280;66420;50.246;14.320;2023-11-19T02:09:58;99637.19;;;2.49;100.00
77351;BME280;66420;50.246;14.320;2023-11-19T02:12:45;99623.22;;;2.57;100.00
77351;BME280;66420;50.246;14.320;2023-11-19T02:15:31;99622.69;;;2.55;100.00
77351;BME280;66420;50.246;14.320;2023-11-19T02:18:25;99621.56;;;2.51;100.00
77351;BME280;66420;50.246;14.320;2023-11-19T02:21:12;99621.06;;;2.54;100.00
77351;BME280;66420;50.246;14.320;2023-11-19T02:23:59;99623.50;;;2.56;100.00
77351;BME280;66420;50.246;14.320;2023-11-19T02:27:00;99616.25;;;2.61;100.00
77351;BME280;66420;50.246;14.320;2023-11-19T02:29:47;99618.16;;;2.61;100.00
77351;BME280;66420;50.246;14.320;2023-11-19T02:32:32;99615.19;;;2.62;100.00
77351;BME280;66420;50.246;14.320;2023-11-19T02:35:16;99604.84;;;2.54;100.00
77351;BME280;66420;50.246;14.320;2023-11-19T02:38:01;99612.19;;;2.59;100.00
77351;BME280;66420;50.246;14.320;2023-11-19T02:40:48;99616.25;;;2.61;100.00
77351;BME280;66420;50.246;14.320;2023-11-19T02:43:34;99598.19;;;2.67;100.00
77351;BME280;66420;50.246;14.320;2023-11-19T02:46:19;99588.22;;;2.67;100.00
77351;BME280;66420;50.246;14.320;2023-11-19T02:49:03;99577.97;;;2.70;100.00
77351;BME280;66420;50.246;14.320;2023-11-19T02:51:48;99566.59;;;2.67;100.00
77351;BME280;66420;50.246;14.320;2023-11-19T02:54:33;99560.66;;;2.71;100.00
77351;BME280;66420;50.246;14.320;2023-11-19T02:57:19;99555.50;;;2.64;100.00
77351;BME280;66420;50.246;14.320;2023-11-19T03:00:05;99552.53;;;2.65;100.00
77351;BME280;66420;50.246;14.320;2023-11-19T03:02:57;99557.44;;;2.68;100.00
77351;BME280;66420;50.246;14.320;2023-11-19T03:05:50;99557.44;;;2.68;100.00
77351;BME280;66420;50.246;14.320;2023-11-19T03:08:35;99535.00;;;2.68;100.00
77351;BME280;66420;50.246;14.320;2023-11-19T03:11:20;99521.22;;;2.70;100.00
77351;BME280;66420;50.246;14.320;2023-11-19T03:14:04;99518.53;;;2.70;100.00
77351;BME280;66420;50.246;14.320;2023-11-19T03:16:49;99509.59;;;2.69;100.00
77351;BME280;66420;50.246;14.320;2023-11-19T03:19:35;99512.03;;;2.65;100.00
77351;BME280;66420;50.246;14.320;2023-11-19T03:22:20;99510.91;;;2.66;100.00
77351;BME280;66420;50.246;14.320;2023-11-19T03:25:05;99503.94;;;2.71;100.00
77351;BME280;66420;50.246;14.320;2023-11-19T03:27:52;99495.09;;;2.80;100.00
77351;BME280;66420;50.246;14.320;2023-11-19T03:30:38;99495.66;;;2.82;100.00
77351;BME280;66420;50.246;14.320;2023-11-19T03:33:23;99500.19;;;2.77;100.00
77351;BME280;66420;50.246;14.320;2023-11-19T03:36:08;99495.81;;;2.71;100.00
77351;BME280;66420;50.246;14.320;2023-11-19T03:38:53;99481.25;;;2.72;100.00
77351;BME280;66420;50.246;14.320;2023-11-19T03:41:38;99465.03;;;2.72;100.00
77351;BME280;66420;50.246;14.320;2023-11-19T03:44:23;99467.78;;;2.77;100.00
77351;BME280;66420;50.246;14.320;2023-11-19T03:47:10;99474.84;;;2.83;100.00
77351;BME280;66420;50.246;14.320;2023-11-19T03:49:55;99471.31;;;2.82;100.00
77351;BME280;66420;50.246;14.320;2023-11-19T03:52:39;99462.66;;;2.80;100.00
77351;BME280;66420;50.246;14.320;2023-11-19T03:55:25;99454.53;;;2.80;100.00
77351;BME280;66420;50.246;14.320;2023-11-19T03:58:09;99448.59;;;2.78;100.00
77351;BME280;66420;50.246;14.320;2023-11-19T04:00:54;99442.63;;;2.76;100.00
77351;BME280;66420;50.246;14.320;2023-11-19T04:03:39;99430.78;;;2.82;100.00
77351;BME280;66420;50.246;14.320;2023-11-19T04:06:24;99420.25;;;2.86;100.00
77351;BME280;66420;50.246;14.320;2023-11-19T04:09:09;99411.34;;;2.85;100.00
77351;BME280;66420;50.246;14.320;2023-11-19T04:11:53;99419.19;;;2.87;100.00
77351;BME280;66420;50.246;14.320;2023-11-19T04:14:37;99410.78;;;2.78;100.00
77351;BME280;66420;50.246;14.320;2023-11-19T04:17:23;99410.25;;;2.81;100.00
77351;BME280;66420;50.246;14.320;2023-11-19T04:20:08;99403.97;;;2.76;100.00
77351;BME280;66420;50.246;14.320;2023-11-19T04:22:57;99390.00;;;2.84;100.00
77351;BME280;66420;50.246;14.320;2023-11-19T04:25:42;99390.22;;;2.77;100.00
77351;BME280;66420;50.246;14.320;2023-11-19T04:28:27;99380.78;;;2.85;100.00
77351;BME280;66420;50.246;14.320;2023-11-19T04:31:11;99380.25;;;2.83;100.00
77351;BME280;66420;50.246;14.320;2023-11-19T04:33:56;99374.88;;;2.88;100.00
77351;BME280;66420;50.246;14.320;2023-11-19T04:36:41;99359.72;;;2.82;100.00
77351;BME280;66420;50.246;14.320;2023-11-19T04:39:26;99355.16;;;2.87;100.00
77351;BME280;66420;50.246;14.320;2023-11-19T04:42:11;99364.59;;;2.90;100.00
77351;BME280;66420;50.246;14.320;2023-11-19T04:44:55;99352.72;;;2.91;100.00
77351;BME280;66420;50.246;14.320;2023-11-19T04:47:40;99343.53;;;2.87;100.00
77351;BME280;66420;50.246;14.320;2023-11-19T04:50:25;99338.13;;;2.92;100.00
77351;BME280;66420;50.246;14.320;2023-11-19T04:53:12;99318.16;;;2.98;100.00
77351;BME280;66420;50.246;14.320;2023-11-19T04:55:57;99317.63;;;3.01;100.00
77351;BME280;66420;50.246;14.320;2023-11-19T04:58:42;99316.00;;;3.00;100.00
77351;BME280;66420;50.246;14.320;2023-11-19T05:01:27;99297.63;;;3.02;100.00
77351;BME280;66420;50.246;14.320;2023-11-19T05:04:12;99290.59;;;3.01;100.00
77351;BME280;66420;50.246;14.320;2023-11-19T05:06:56;99290.59;;;3.01;100.00
77351;BME280;66420;50.246;14.320;2023-11-19T05:09:41;99293.31;;;3.01;100.00
77351;BME280;66420;50.246;14.320;2023-11-19T05:12:27;99298.16;;;3.04;100.00
77351;BME280;66420;50.246;14.320;2023-11-19T05:15:12;99306.28;;;3.04;100.00
77351;BME280;66420;50.246;14.320;2023-11-19T05:17:57;99303.84;;;3.07;100.00
77351;BME280;66420;50.246;14.320;2023-11-19T05:20:42;99299.81;;;3.10;100.00
77351;BME280;66420;50.246;14.320;2023-11-19T05:23:27;99290.63;;;3.11;100.00
77351;BME280;66420;50.246;14.320;2023-11-19T05:26:22;99278.72;;;3.17;100.00
77351;BME280;66420;50.246;14.320;2023-11-19T05:29:07;99275.50;;;3.15;100.00
77351;BME280;66420;50.246;14.320;2023-11-19T05:31:52;99273.59;;;3.10;100.00
77351;BME280;66420;50.246;14.320;2023-11-19T05:34:37;99275.22;;;3.11;100.00
77351;BME280;66420;50.246;14.320;2023-11-19T05:37:21;99273.06;;;3.13;100.00
77351;BME280;66420;50.246;14.320;2023-11-19T05:40:06;99252.50;;;3.12;100.00
77351;BME280;66420;50.246;14.320;2023-11-19T05:42:58;99261.16;;;3.09;100.00
77351;BME280;66420;50.246;14.320;2023-11-19T05:45:43;99263.84;;;3.09;100.00
77351;BME280;66420;50.246;14.320;2023-11-19T05:48:28;99245.19;;;3.13;100.00
77351;BME280;66420;50.246;14.320;2023-11-19T05:51:13;99243.59;;;3.17;100.00
77351;BME280;66420;50.246;14.320;2023-11-19T05:53:59;99242.50;;;3.18;100.00
77351;BME280;66420;50.246;14.320;2023-11-19T05:56:48;99245.22;;;3.18;100.00
77351;BME280;66420;50.246;14.320;2023-11-19T05:59:33;99252.00;;;3.21;100.00
77351;BME280;66420;50.246;14.320;2023-11-19T06:02:18;99249.28;;;3.16;100.00
77351;BME280;66420;50.246;14.320;2023-11-19T06:05:03;99246.28;;;3.17;100.00
77351;BME280;66420;50.246;14.320;2023-11-19T06:07:50;99244.94;;;3.20;100.00
77351;BME280;66420;50.246;14.320;2023-11-19T06:10:35;99236.56;;;3.21;100.00
77351;BME280;66420;50.246;14.320;2023-11-19T06:13:21;99232.78;;;3.22;100.00
77351;BME280;66420;50.246;14.320;2023-11-19T06:16:06;99241.44;;;3.24;100.00
77351;BME280;66420;50.246;14.320;2023-11-19T06:18:52;99237.13;;;3.28;100.00
77351;BME280;66420;50.246;14.320;2023-11-19T06:21:38;99215.75;;;3.27;100.00
77351;BME280;66420;50.246;14.320;2023-11-19T06:24:23;99206.81;;;3.21;100.00
77351;BME280;66420;50.246;14.320;2023-11-19T06:27:08;99237.38;;;3.27;100.00
77351;BME280;66420;50.246;14.320;2023-11-19T06:29:53;99256.56;;;3.30;100.00
77351;BME280;66420;50.246;14.320;2023-11-19T06:32:38;99257.69;;;3.34;100.00
77351;BME280;66420;50.246;14.320;2023-11-19T06:35:24;99239.84;;;3.33;100.00
77351;BME280;66420;50.246;14.320;2023-11-19T06:38:08;99226.81;;;3.30;100.00
77351;BME280;66420;50.246;14.320;2023-11-19T06:40:53;99231.72;;;3.33;100.00
77351;BME280;66420;50.246;14.320;2023-11-19T06:43:38;99238.22;;;3.37;100.00
77351;BME280;66420;50.246;14.320;2023-11-19T06:46:23;99244.97;;;3.40;100.00
77351;BME280;66420;50.246;14.320;2023-11-19T06:49:08;99240.09;;;3.47;100.00
77351;BME280;66420;50.246;14.320;2023-11-19T06:51:53;99219.28;;;3.47;100.00
77351;BME280;66420;50.246;14.320;2023-11-19T06:54:39;99219.81;;;3.49;100.00
77351;BME280;66420;50.246;14.320;2023-11-19T06:57:23;99217.91;;;3.50;100.00
77351;BME280;66420;50.246;14.320;2023-11-19T07:00:09;99223.06;;;3.46;100.00
77351;BME280;66420;50.246;14.320;2023-11-19T07:02:55;99211.69;;;3.39;100.00
77351;BME280;66420;50.246;14.320;2023-11-19T07:05:40;99211.72;;;3.34;100.00
77351;BME280;66420;50.246;14.320;2023-11-19T07:08:24;99220.34;;;3.31;100.00
77351;BME280;66420;50.246;14.320;2023-11-19T07:11:11;99230.34;;;3.31;100.00
77351;BME280;66420;50.246;14.320;2023-11-19T07:13:56;99224.69;;;3.37;100.00
77351;BME280;66420;50.246;14.320;2023-11-19T07:16:40;99219.00;;;3.44;100.00
77351;BME280;66420;50.246;14.320;2023-11-19T07:19:26;99220.34;;;3.46;100.00
77351;BME280;66420;50.246;14.320;2023-11-19T07:22:11;99217.66;;;3.51;100.00
77351;BME280;66420;50.246;14.320;2023-11-19T07:24:56;99202.50;;;3.50;100.00
77351;BME280;66420;50.246;14.320;2023-11-19T07:27:40;99201.94;;;3.53;100.00
77351;BME280;66420;50.246;14.320;2023-11-19T07:30:25;99194.94;;;3.52;100.00
77351;BME280;66420;50.246;14.320;2023-11-19T07:33:10;99201.13;;;3.58;100.00
77351;BME280;66420;50.246;14.320;2023-11-19T07:35:55;99199.25;;;3.64;100.00
77351;BME280;66420;50.246;14.320;2023-11-19T07:38:41;99216.28;;;3.64;100.00
77351;BME280;66420;50.246;14.320;2023-11-19T07:41:25;99211.69;;;3.70;100.00
77351;BME280;66420;50.246;14.320;2023-11-19T07:44:11;99204.91;;;3.72;100.00
77351;BME280;66420;50.246;14.320;2023-11-19T07:46:55;99206.28;;;3.80;100.00
77351;BME280;66420;50.246;14.320;2023-11-19T07:49:40;99200.31;;;3.83;100.00
77351;BME280;66420;50.246;14.320;2023-11-19T07:52:28;99191.63;;;3.86;100.00
77351;BME280;66420;50.246;14.320;2023-11-19T07:55:13;99201.13;;;3.83;100.00
77351;BME280;66420;50.246;14.320;2023-11-19T07:57:58;99195.41;;;3.90;100.00
77351;BME280;66420;50.246;14.320;2023-11-19T08:00:43;99203.00;;;3.93;100.00
77351;BME280;66420;50.246;14.320;2023-11-19T08:03:28;99207.88;;;3.91;100.00
77351;BME280;66420;50.246;14.320;2023-11-19T08:06:14;99187.81;;;3.97;100.00
77351;BME280;66420;50.246;14.320;2023-11-19T08:08:58;99182.66;;;4.00;100.00
77351;BME280;66420;50.246;14.320;2023-11-19T08:11:44;99166.69;;;3.99;100.00
77351;BME280;66420;50.246;14.320;2023-11-19T08:14:29;99172.09;;;4.04;100.00
77351;BME280;66420;50.246;14.320;2023-11-19T08:17:13;99180.75;;;4.06;100.00
77351;BME280;66420;50.246;14.320;2023-11-19T08:19:58;99177.50;;;4.09;100.00
77351;BME280;66420;50.246;14.320;2023-11-19T08:22:45;99177.75;;;4.13;100.00
77351;BME280;66420;50.246;14.320;2023-11-19T08:25:30;99175.84;;;4.18;100.00
77351;BME280;66420;50.246;14.320;2023-11-19T08:28:15;99170.97;;;4.25;100.00
77351;BME280;66420;50.246;14.320;2023-11-19T08:31:00;99165.53;;;4.30;100.00
77351;BME280;66420;50.246;14.320;2023-11-19T08:33:45;99173.09;;;4.33;100.00
77351;BME280;66420;50.246;14.320;2023-11-19T08:36:30;99169.00;;;4.31;100.00
77351;BME280;66420;50.246;14.320;2023-11-19T08:39:16;99170.41;;;4.23;100.00
77351;BME280;66420;50.246;14.320;2023-11-19T08:42:01;99171.50;;;4.22;100.00
77351;BME280;66420;50.246;14.320;2023-11-19T08:44:49;99166.59;;;4.29;100.00
77351;BME280;66420;50.246;14.320;2023-11-19T08:47:35;99166.03;;;4.32;100.00
77351;BME280;66420;50.246;14.320;2023-11-19T08:50:20;99164.41;;;4.31;100.00
77351;BME280;66420;50.246;14.320;2023-11-19T08:53:05;99165.47;;;4.35;100.00
77351;BME280;66420;50.246;14.320;2023-11-19T08:55:51;99164.41;;;4.36;100.00
77351;BME280;66420;50.246;14.320;2023-11-19T08:58:36;99168.72;;;4.42;100.00
77351;BME280;66420;50.246;14.320;2023-11-19T09:01:21;99162.19;;;4.49;100.00
77351;BME280;66420;50.246;14.320;2023-11-19T09:04:06;99169.75;;;4.52;100.00
77351;BME280;66420;50.246;14.320;2023-11-19T09:06:51;99169.19;;;4.55;100.00
77351;BME280;66420;50.246;14.320;2023-11-19T09:09:36;99173.78;;;4.54;100.00
77351;BME280;66420;50.246;14.320;2023-11-19T09:12:21;99171.91;;;4.55;100.00
77351;BME280;66420;50.246;14.320;2023-11-19T09:15:07;99157.81;;;4.58;100.00
77351;BME280;66420;50.246;14.320;2023-11-19T09:17:52;99147.44;;;4.70;100.00
77351;BME280;66420;50.246;14.320;2023-11-19T09:20:36;99139.78;;;4.77;100.00
77351;BME280;66420;50.246;14.320;2023-11-19T09:23:23;99132.44;;;4.82;100.00
77351;BME280;66420;50.246;14.320;2023-11-19T09:26:09;99130.50;;;4.88;100.00
77351;BME280;66420;50.246;14.320;2023-11-19T09:28:57;99125.53;;;5.00;100.00
77351;BME280;66420;50.246;14.320;2023-11-19T09:31:42;99127.34;;;5.10;100.00
77351;BME280;66420;50.246;14.320;2023-11-19T09:34:27;99127.03;;;5.16;100.00
77351;BME280;66420;50.246;14.320;2023-11-19T09:37:12;99132.53;;;5.40;100.00
77351;BME280;66420;50.246;14.320;2023-11-19T09:39:57;99141.44;;;5.74;100.00
77351;BME280;66420;50.246;14.320;2023-11-19T09:42:43;99140.50;;;5.84;100.00
77351;BME280;66420;50.246;14.320;2023-11-19T09:45:32;99127.41;;;6.15;100.00
77351;BME280;66420;50.246;14.320;2023-11-19T09:48:24;99118.41;;;6.19;100.00
77351;BME280;66420;50.246;14.320;2023-11-19T09:51:11;99112.81;;;6.53;100.00
77351;BME280;66420;50.246;14.320;2023-11-19T09:53:56;99115.13;;;6.97;100.00
77351;BME280;66420;50.246;14.320;2023-11-19T09:56:41;99108.94;;;7.43;100.00
77351;BME280;66420;50.246;14.320;2023-11-19T09:59:26;99106.78;;;7.72;100.00
77351;BME280;66420;50.246;14.320;2023-11-19T10:02:11;99113.69;;;7.83;100.00
77351;BME280;66420;50.246;14.320;2023-11-19T10:04:57;99104.81;;;7.91;100.00
77351;BME280;66420;50.246;14.320;2023-11-19T10:07:43;99104.69;;;7.69;100.00
77351;BME280;66420;50.246;14.320;2023-11-19T10:10:29;99089.66;;;7.99;100.00
77351;BME280;66420;50.246;14.320;2023-11-19T10:13:13;99082.81;;;8.15;100.00
77351;BME280;66420;50.246;14.320;2023-11-19T10:15:59;99081.38;;;8.18;100.00
77351;BME280;66420;50.246;14.320;2023-11-19T10:18:49;99084.41;;;8.02;100.00
77351;BME280;66420;50.246;14.320;2023-11-19T10:21:37;99089.03;;;8.02;100.00
77351;BME280;66420;50.246;14.320;2023-11-19T10:24:31;99084.19;;;7.99;100.00
77351;BME280;66420;50.246;14.320;2023-11-19T10:27:18;99074.13;;;7.99;100.00
77351;BME280;66420;50.246;14.320;2023-11-19T10:30:03;99067.25;;;8.02;100.00
77351;BME280;66420;50.246;14.320;2023-11-19T10:33:05;99070.66;;;8.08;100.00
77351;BME280;66420;50.246;14.320;2023-11-19T10:35:55;99057.75;;;8.13;100.00
77351;BME280;66420;50.246;14.320;2023-11-19T10:38:52;99056.44;;;8.24;100.00
77351;BME280;66420;50.246;14.320;2023-11-19T10:41:37;99062.00;;;8.33;100.00
77351;BME280;66420;50.246;14.320;2023-11-19T10:44:34;99063.09;;;8.45;100.00
77351;BME280;66420;50.246;14.320;2023-11-19T10:47:22;99062.34;;;8.54;100.00
77351;BME280;66420;50.246;14.320;2023-11-19T10:50:07;99052.25;;;8.54;100.00
77351;BME280;66420;50.246;14.320;2023-11-19T10:52:55;99057.72;;;8.54;100.00
77351;BME280;66420;50.246;14.320;2023-11-19T10:55:47;99050.50;;;8.58;100.00
77351;BME280;66420;50.246;14.320;2023-11-19T10:58:32;99057.47;;;8.64;100.00
77351;BME280;66420;50.246;14.320;2023-11-19T11:01:23;99061.09;;;8.73;100.00
77351;BME280;66420;50.246;14.320;2023-11-19T11:04:19;99051.34;;;8.81;100.00
77351;BME280;66420;50.246;14.320;2023-11-19T11:07:07;99048.19;;;8.87;100.00
77351;BME280;66420;50.246;14.320;2023-11-19T11:09:53;99043.22;;;8.89;100.00
77351;BME280;66420;50.246;14.320;2023-11-19T11:12:40;99044.25;;;8.94;100.00
77351;BME280;66420;50.246;14.320;2023-11-19T11:15:27;99033.59;;;9.14;100.00
77351;BME280;66420;50.246;14.320;2023-11-19T11:18:13;99024.56;;;9.36;100.00
77351;BME280;66420;50.246;14.320;2023-11-19T11:21:05;99022.50;;;9.42;100.00
77351;BME280;66420;50.246;14.320;2023-11-19T11:32:52;99027.53;;;10.79;93.11
77351;BME280;66420;50.246;14.320;2023-11-19T11:36:15;99031.38;;;10.95;91.75
77351;BME280;66420;50.246;14.320;2023-11-19T11:38:52;99032.34;;;10.82;92.73
77351;BME280;66420;50.246;14.320;2023-11-19T11:41:38;99036.84;;;11.12;90.39
77351;BME280;66420;50.246;14.320;2023-11-19T11:44:57;99039.06;;;11.27;90.46
77351;BME280;66420;50.246;14.320;2023-11-19T11:50:27;99018.09;;;11.31;89.35
77351;BME280;66420;50.246;14.320;2023-11-19T11:53:13;99021.28;;;11.42;88.36
77351;BME280;66420;50.246;14.320;2023-11-19T11:55:58;99018.09;;;11.31;88.73
77351;BME280;66420;50.246;14.320;2023-11-19T11:58:45;99013.06;;;11.42;88.50
77351;BME280;66420;50.246;14.320;2023-11-19T12:01:31;99018.47;;;11.68;88.55
77351;BME280;66420;50.246;14.320;2023-11-19T12:04:16;99020.66;;;11.83;87.92
77351;BME280;66420;50.246;14.320;2023-11-19T12:07:06;99020.50;;;11.88;87.16
77351;BME280;66420;50.246;14.320;2023-11-19T12:09:53;99008.66;;;12.05;86.17
77351;BME280;66420;50.246;14.320;2023-11-19T12:12:40;99022.94;;;12.10;85.77
77351;BME280;66420;50.246;14.320;2023-11-19T12:15:26;99014.72;;;11.81;86.13
77351;BME280;66420;50.246;14.320;2023-11-19T12:18:18;99010.16;;;11.47;87.19
77351;BME280;66420;50.246;14.320;2023-11-19T12:21:04;99016.78;;;11.37;88.81
77351;BME280;66420;50.246;14.320;2023-11-19T12:23:50;98996.84;;;11.20;89.99
77351;BME280;66420;50.246;14.320;2023-11-19T12:26:38;98994.16;;;11.11;90.46
77351;BME280;66420;50.246;14.320;2023-11-19T12:29:23;98994.81;;;11.08;89.43
77351;BME280;66420;50.246;14.320;2023-11-19T12:32:08;98981.31;;;11.49;85.49
77351;BME280;66420;50.246;14.320;2023-11-19T12:34:53;98976.97;;;11.86;81.32
77351;BME280;66420;50.246;14.320;2023-11-19T12:37:44;98970.31;;;11.87;78.89
77351;BME280;66420;50.246;14.320;2023-11-19T12:40:30;98960.03;;;11.84;77.97
77351;BME280;66420;50.246;14.320;2023-11-19T12:43:22;98958.72;;;12.11;78.13
77351;BME280;66420;50.246;14.320;2023-11-19T12:46:23;98957.00;;;12.27;76.80
77351;BME280;66420;50.246;14.320;2023-11-19T12:49:11;98948.97;;;12.43;76.63
77351;BME280;66420;50.246;14.320;2023-11-19T12:51:56;98952.31;;;12.49;75.49
77351;BME280;66420;50.246;14.320;2023-11-19T12:54:41;98944.41;;;12.68;76.65
77351;BME280;66420;50.246;14.320;2023-11-19T12:57:36;98942.53;;;12.60;76.22
77351;BME280;66420;50.246;14.320;2023-11-19T13:00:23;98947.50;;;12.46;78.37
77351;BME280;66420;50.246;14.320;2023-11-19T13:03:08;98944.69;;;12.13;77.39
77351;BME280;66420;50.246;14.320;2023-11-19T13:06:07;98961.09;;;11.92;78.19
77351;BME280;66420;50.246;14.320;2023-11-19T13:08:52;98953.53;;;12.18;78.60
77351;BME280;66420;50.246;14.320;2023-11-19T13:11:39;98944.09;;;12.49;76.97
77351;BME280;66420;50.246;14.320;2023-11-19T13:14:36;98938.06;;;12.55;78.66
77351;BME280;66420;50.246;14.320;2023-11-19T13:17:21;98936.44;;;12.54;79.47
77351;BME280;66420;50.246;14.320;2023-11-19T13:20:07;98942.81;;;12.25;80.11
77351;BME280;66420;50.246;14.320;2023-11-19T13:22:59;98950.78;;;12.18;81.87
77351;BME280;66420;50.246;14.320;2023-11-19T13:25:44;98935.66;;;12.12;82.35
77351;BME280;66420;50.246;14.320;2023-11-19T13:28:30;98937.78;;;12.07;82.66
77351;BME280;66420;50.246;14.320;2023-11-19T13:31:15;98938.34;;;12.00;83.35
77351;BME280;66420;50.246;14.320;2023-11-19T13:34:00;98929.56;;;11.86;83.78
77351;BME280;66420;50.246;14.320;2023-11-19T13:36:45;98926.69;;;11.74;84.46
77351;BME280;66420;50.246;14.320;2023-11-19T13:39:30;98923.84;;;11.62;85.02
77351;BME280;66420;50.246;14.320;2023-11-19T13:42:15;98921.03;;;11.49;85.54
77351;BME280;66420;50.246;14.320;2023-11-19T13:45:00;98930.41;;;11.40;86.75
77351;BME280;66420;50.246;14.320;2023-11-19T13:47:45;98926.09;;;11.30;88.34
77351;BME280;66420;50.246;14.320;2023-11-19T13:50:30;98923.03;;;11.23;88.10
77351;BME280;66420;50.246;14.320;2023-11-19T13:53:16;98917.44;;;11.20;89.16
77351;BME280;66420;50.246;14.320;2023-11-19T13:56:01;98921.81;;;11.12;89.81
77351;BME280;66420;50.246;14.320;2023-11-19T13:58:46;98919.88;;;11.13;89.67
77351;BME280;66420;50.246;14.320;2023-11-19T14:04:13;98925.69;;;11.11;90.59
77351;BME280;66420;50.246;14.320;2023-11-19T14:06:58;98929.44;;;10.98;90.51
77351;BME280;66420;50.246;14.320;2023-11-19T14:09:43;98933.78;;;10.99;90.70
77351;BME280;66420;50.246;14.320;2023-11-19T14:12:27;98930.25;;;10.90;91.47
77351;BME280;66420;50.246;14.320;2023-11-19T14:15:12;98925.25;;;10.92;92.15
77351;BME280;66420;50.246;14.320;2023-11-19T14:17:57;98931.22;;;10.94;91.95
77351;BME280;66420;50.246;14.320;2023-11-19T14:20:43;98939.28;;;10.82;93.05
77351;BME280;66420;50.246;14.320;2023-11-19T14:23:28;98936.25;;;10.75;92.45
77351;BME280;66420;50.246;14.320;2023-11-19T14:26:13;98947.34;;;10.70;93.25
77351;BME280;66420;50.246;14.320;2023-11-19T14:28:58;98948.63;;;10.63;93.40
77351;BME280;66420;50.246;14.320;2023-11-19T14:31:42;98961.69;;;10.58;94.65
77351;BME280;66420;50.246;14.320;2023-11-19T14:34:28;98963.78;;;10.52;95.33
77351;BME280;66420;50.246;14.320;2023-11-19T14:37:12;98974.25;;;10.42;97.65
77351;BME280;66420;50.246;14.320;2023-11-19T14:39:57;98975.22;;;10.29;100.00
77351;BME280;66420;50.246;14.320;2023-11-19T14:42:45;99010.75;;;10.20;100.00